Time;durP1;ratioP1;P1;durP2;ratioP2;P2;SDS_P1;SDS_P2;PMS_P1;PMS_P2;Temp;Humidity;BMP_temperature;BMP_pressure;BME280_temperature;BME280_humidity;BME280_pressure;Samples;Min_cycle;Max_cycle;Signal;HPM_P1;HPM_P2
2021/09/24 00:00:11;;;;;;;17.90;9.57;;;;;;;14.50;100.00;101271.41;4949849;28;20043;-66
2021/09/24 00:02:39;;;;;;;19.27;7.97;;;;;;;14.49;100.00;101274.25;4950303;28;20043;-67
2021/09/24 00:05:08;;;;;;;20.02;8.73;;;;;;;14.61;100.00;101278.22;4945706;28;20093;-67
2021/09/24 00:07:36;;;;;;;14.25;7.28;;;;;;;14.69;100.00;101272.81;4944583;28;20085;-67
2021/09/24 00:10:06;;;;;;;19.75;8.88;;;;;;;14.68;100.00;101267.63;4946807;28;20047;-66
2021/09/24 00:12:34;;;;;;;17.98;7.32;;;;;;;14.75;100.00;101272.09;4945487;28;20462;-67
2021/09/24 00:15:02;;;;;;;19.00;8.15;;;;;;;14.73;100.00;101274.13;4947140;28;20079;-67
2021/09/24 00:17:30;;;;;;;14.32;7.18;;;;;;;14.70;100.00;101269.13;4944688;28;20048;-66
2021/09/24 00:19:58;;;;;;;16.13;7.45;;;;;;;14.66;100.00;101267.81;4949567;28;20043;-67
2021/09/24 00:22:26;;;;;;;17.77;7.68;;;;;;;14.74;100.00;101264.19;4948321;28;20047;-67
2021/09/24 00:24:54;;;;;;;17.05;7.40;;;;;;;14.68;100.00;101263.06;4954786;28;20363;-66
2021/09/24 00:27:23;;;;;;;19.23;7.93;;;;;;;14.68;100.00;101263.06;4945038;28;20047;-67
2021/09/24 00:29:52;;;;;;;16.48;7.53;;;;;;;14.55;100.00;101257.44;4943987;28;20039;-66
2021/09/24 00:32:21;;;;;;;17.35;8.48;;;;;;;14.57;100.00;101252.69;4949372;28;20047;-66
2021/09/24 00:34:50;;;;;;;14.70;7.15;;;;;;;14.57;100.00;101250.88;4947953;28;20055;-66
2021/09/24 00:37:18;;;;;;;15.45;7.53;;;;;;;14.49;100.00;101244.69;4943991;28;20109;-67
2021/09/24 00:39:46;;;;;;;18.10;7.82;;;;;;;14.56;100.00;101249.19;4950435;28;20423;-67
2021/09/24 00:42:14;;;;;;;14.25;7.20;;;;;;;14.48;100.00;101248.41;4949428;28;20051;-66
2021/09/24 00:44:47;;;;;;;15.90;8.23;;;;;;;14.46;100.00;101245.91;4946876;28;20052;-66
2021/09/24 00:47:15;;;;;;;12.75;6.93;;;;;;;14.52;100.00;101245.19;4942125;28;20105;-65
2021/09/24 00:49:43;;;;;;;14.70;7.85;;;;;;;14.50;100.00;101244.53;4950650;28;20055;-66
2021/09/24 00:52:11;;;;;;;12.55;6.18;;;;;;;14.57;100.00;101241.94;4948703;28;20061;-67
2021/09/24 00:54:39;;;;;;;17.50;8.52;;;;;;;14.57;100.00;101239.25;4950401;28;20368;-66
2021/09/24 00:57:07;;;;;;;16.75;6.72;;;;;;;14.60;100.00;101230.84;4948855;28;20047;-65
2021/09/24 00:59:35;;;;;;;14.88;6.55;;;;;;;14.59;100.00;101234.56;4947263;28;20485;-66
2021/09/24 01:02:05;;;;;;;20.45;8.82;;;;;;;14.54;100.00;101227.00;4943735;28;20382;-66
2021/09/24 01:04:33;;;;;;;13.18;6.03;;;;;;;14.63;100.00;101233.22;4945466;28;20324;-67
2021/09/24 01:07:01;;;;;;;14.65;6.57;;;;;;;14.65;100.00;101231.19;4944720;28;20058;-67
2021/09/24 01:09:30;;;;;;;15.95;6.70;;;;;;;14.56;100.00;101225.00;4950841;28;20342;-66
2021/09/24 01:11:59;;;;;;;12.77;6.65;;;;;;;14.56;100.00;101226.84;4947781;28;20051;-66
2021/09/24 01:14:28;;;;;;;18.70;7.50;;;;;;;14.56;100.00;101229.53;4946994;28;20051;-66
2021/09/24 01:16:56;;;;;;;14.40;7.40;;;;;;;14.48;100.00;101224.22;4945056;28;20070;-66
2021/09/24 01:19:26;;;;;;;16.30;6.38;;;;;;;14.57;100.00;101220.44;4951765;28;20212;-66
2021/09/24 01:21:55;;;;;;;13.95;7.30;;;;;;;14.51;100.00;101222.00;4949854;28;20322;-67
2021/09/24 01:24:23;;;;;;;12.63;6.85;;;;;;;14.52;100.00;101223.69;4947982;28;20055;-66
2021/09/24 01:26:53;;;;;;;16.45;6.47;;;;;;;14.51;100.00;101218.50;4945024;28;20051;-66
2021/09/24 01:29:23;;;;;;;16.15;7.35;;;;;;;14.52;100.00;101217.50;4952012;28;20058;-66
2021/09/24 01:31:55;;;;;;;18.30;7.50;;;;;;;14.55;100.00;101215.25;4950577;28;20059;-66
2021/09/24 01:34:23;;;;;;;15.55;6.90;;;;;;;14.41;100.00;101213.34;4941147;28;20058;-66
2021/09/24 01:36:51;;;;;;;11.00;5.95;;;;;;;14.26;100.00;101210.59;4946923;28;20365;-66
2021/09/24 01:39:21;;;;;;;18.98;8.52;;;;;;;14.18;100.00;101207.97;4944400;28;20073;-66
2021/09/24 01:41:49;;;;;;;12.60;6.70;;;;;;;14.22;100.00;101222.72;4949991;28;20089;-66
2021/09/24 01:44:17;;;;;;;11.82;6.43;;;;;;;14.03;100.00;101216.75;4946592;28;20054;-66
2021/09/24 01:46:47;;;;;;;16.08;7.88;;;;;;;14.03;100.00;101208.72;4947173;28;20201;-66
2021/09/24 01:49:16;;;;;;;14.82;7.43;;;;;;;14.06;100.00;101212.91;4949768;28;20458;-66
2021/09/24 01:51:45;;;;;;;20.38;7.70;;;;;;;14.04;100.00;101210.38;4945372;28;20043;-66
2021/09/24 01:54:14;;;;;;;16.23;7.88;;;;;;;13.92;100.00;101206.41;4946317;28;20047;-66
2021/09/24 01:56:43;;;;;;;17.75;8.07;;;;;;;13.86;100.00;101207.13;4944429;28;20047;-66
2021/09/24 01:59:11;;;;;;;23.33;9.70;;;;;;;13.92;100.00;101203.72;4947930;28;20400;-66
2021/09/24 02:01:39;;;;;;;20.98;9.63;;;;;;;13.86;100.00;101212.50;4948636;28;20050;-67
2021/09/24 02:04:07;;;;;;;20.55;8.48;;;;;;;13.94;100.00;101201.72;4943724;28;20415;-66
2021/09/24 02:06:35;;;;;;;25.80;8.82;;;;;;;13.82;100.00;101200.44;4949338;28;20226;-66
2021/09/24 02:09:03;;;;;;;25.65;9.35;;;;;;;13.90;100.00;101197.72;4956637;28;20435;-66
2021/09/24 02:11:31;;;;;;;16.25;7.82;;;;;;;13.90;100.00;101203.91;4945998;28;20043;-67
2021/09/24 02:14:01;;;;;;;18.25;8.18;;;;;;;13.97;100.00;101201.38;4949589;28;20055;-66
2021/09/24 02:16:28;;;;;;;18.73;8.15;;;;;;;13.99;100.00;101207.41;4945265;28;20035;-66
2021/09/24 02:18:56;;;;;;;20.70;8.82;;;;;;;14.06;100.00;101203.00;4947476;28;20384;-66
2021/09/24 02:21:24;;;;;;;17.90;7.70;;;;;;;14.17;100.00;101200.94;4948323;28;20074;-67
2021/09/24 02:23:52;;;;;;;18.15;7.90;;;;;;;14.16;100.00;101202.78;4952250;28;20243;-66
2021/09/24 02:26:20;;;;;;;22.27;9.05;;;;;;;14.25;100.00;101203.56;4945068;28;20468;-66
2021/09/24 02:29:10;;;;;;;19.65;9.27;;;;;;;14.28;100.00;101200.53;4943812;28;20047;-67
2021/09/24 02:31:38;;;;;;;15.25;7.85;;;;;;;14.25;100.00;101200.88;4945922;28;20383;-67
2021/09/24 02:34:06;;;;;;;17.38;7.75;;;;;;;14.36;100.00;101202.28;4947885;28;20476;-66
2021/09/24 02:36:34;;;;;;;17.92;7.90;;;;;;;14.49;100.00;101202.56;4948200;28;20047;-67
2021/09/24 02:39:02;;;;;;;18.17;7.65;;;;;;;14.45;100.00;101193.19;4945781;28;20093;-67
2021/09/24 02:41:30;;;;;;;19.13;7.78;;;;;;;14.43;100.00;101192.50;4942820;28;20040;-66
2021/09/24 02:43:58;;;;;;;19.10;8.27;;;;;;;14.42;100.00;101197.06;4946316;28;20100;-67
2021/09/24 02:46:27;;;;;;;17.17;8.13;;;;;;;14.49;100.00;101199.00;4941635;28;20039;-66
2021/09/24 02:48:55;;;;;;;19.05;7.80;;;;;;;14.54;100.00;101193.94;4945370;28;20347;-66
2021/09/24 02:51:23;;;;;;;13.38;8.45;;;;;;;14.53;100.00;101198.50;4945542;28;20048;-66
2021/09/24 02:53:51;;;;;;;18.90;7.93;;;;;;;14.59;100.00;101196.94;4950866;28;20591;-66
2021/09/24 02:56:19;;;;;;;26.20;7.65;;;;;;;14.58;100.00;101189.88;4944687;28;20051;-66
2021/09/24 02:58:47;;;;;;;18.92;7.72;;;;;;;14.66;100.00;101184.47;4948836;28;20471;-67
2021/09/24 03:01:15;;;;;;;17.80;8.52;;;;;;;14.59;100.00;101188.88;4944382;28;20043;-66
2021/09/24 03:03:44;;;;;;;20.20;8.45;;;;;;;14.67;100.00;101194.19;4941717;28;20050;-66
2021/09/24 03:06:13;;;;;;;21.55;8.27;;;;;;;14.67;100.00;101183.44;4944624;28;20051;-66
2021/09/24 03:08:43;;;;;;;23.95;8.48;;;;;;;14.71;100.00;101189.31;4946488;28;20062;-66
2021/09/24 03:11:10;;;;;;;21.60;9.38;;;;;;;14.75;100.00;101175.31;4944816;28;20501;-66
2021/09/24 03:13:38;;;;;;;25.42;11.05;;;;;;;14.80;100.00;101175.59;4947172;28;20454;-67
2021/09/24 03:16:06;;;;;;;33.15;12.95;;;;;;;14.74;100.00;101176.34;4947615;28;20097;-66
2021/09/24 03:18:34;;;;;;;36.75;15.48;;;;;;;14.76;100.00;101181.53;4901452;28;1142776;-66
2021/09/24 03:21:03;;;;;;;37.00;15.43;;;;;;;14.73;100.00;101179.19;4946636;28;20374;-64
2021/09/24 03:23:31;;;;;;;39.47;17.42;;;;;;;14.70;100.00;101177.72;4951101;28;20423;-66
2021/09/24 03:25:59;;;;;;;40.45;17.70;;;;;;;14.76;100.00;101176.97;4944453;28;20063;-67
2021/09/24 03:28:27;;;;;;;41.80;18.13;;;;;;;14.76;100.00;101170.78;4945884;28;20047;-66
2021/09/24 03:30:55;;;;;;;49.42;19.00;;;;;;;14.85;100.00;101177.75;4947387;28;20043;-67
2021/09/24 03:33:23;;;;;;;39.00;16.67;;;;;;;14.90;100.00;101175.34;4941604;28;20035;-66
2021/09/24 03:35:51;;;;;;;38.33;17.40;;;;;;;14.94;100.00;101173.97;4946648;28;20043;-66
2021/09/24 03:38:20;;;;;;;29.33;15.45;;;;;;;14.90;100.00;101174.50;4950617;28;20043;-66
2021/09/24 03:40:48;;;;;;;34.33;16.33;;;;;;;14.84;100.00;101168.00;4949237;28;20047;-66
2021/09/24 03:43:16;;;;;;;44.63;19.10;;;;;;;14.80;100.00;101172.09;4949892;28;20324;-66
2021/09/24 03:45:44;;;;;;;37.90;18.27;;;;;;;14.82;100.00;101174.59;4945091;28;20330;-66
2021/09/24 03:48:12;;;;;;;37.20;16.35;;;;;;;14.83;100.00;101170.88;4942625;28;20386;-66
2021/09/24 03:50:40;;;;;;;36.95;16.73;;;;;;;14.81;100.00;101173.75;4945002;28;20252;-66
2021/09/24 03:53:08;;;;;;;34.42;17.13;;;;;;;14.80;100.00;101177.47;4948382;28;20109;-66
2021/09/24 03:55:37;;;;;;;33.05;17.08;;;;;;;14.82;100.00;101175.41;4949653;28;20047;-66
2021/09/24 03:58:05;;;;;;;43.50;17.80;;;;;;;14.82;100.00;101169.22;4944231;28;20051;-66
2021/09/24 04:00:33;;;;;;;31.73;15.10;;;;;;;14.83;100.00;101170.88;4948750;28;20039;-66
2021/09/24 04:03:01;;;;;;;28.77;15.25;;;;;;;14.80;100.00;101167.53;4944084;28;20070;-66
2021/09/24 04:05:29;;;;;;;30.08;15.02;;;;;;;14.78;100.00;101166.03;4952578;28;20054;-66
2021/09/24 04:07:57;;;;;;;22.67;13.82;;;;;;;14.76;100.00;101171.63;4941908;28;20070;-66
2021/09/24 04:10:24;;;;;;;25.90;14.43;;;;;;;14.66;100.00;101176.41;4947740;28;20312;-66
2021/09/24 04:12:54;;;;;;;27.00;13.60;;;;;;;14.62;100.00;101173.25;4949456;28;20096;-66
2021/09/24 04:15:22;;;;;;;28.98;13.93;;;;;;;14.67;100.00;101175.38;4949165;28;20055;-66
2021/09/24 04:17:50;;;;;;;26.17;13.50;;;;;;;14.79;100.00;101170.41;4943675;28;20346;-66
2021/09/24 04:20:18;;;;;;;27.42;13.60;;;;;;;14.78;100.00;101174.94;4945628;28;20077;-67
2021/09/24 04:22:45;;;;;;;22.67;11.68;;;;;;;14.84;100.00;101167.16;4949456;28;20059;-66
2021/09/24 04:25:13;;;;;;;29.30;12.32;;;;;;;14.86;100.00;101167.84;4944962;28;20431;-66
2021/09/24 04:27:41;;;;;;;25.30;13.70;;;;;;;14.78;100.00;101168.75;4944476;28;20376;-67
2021/09/24 04:30:12;;;;;;;19.33;11.63;;;;;;;14.89;100.00;101164.78;4945474;28;20065;-66
2021/09/24 04:32:40;;;;;;;19.95;11.50;;;;;;;14.93;100.00;101166.91;4946247;28;20090;-66
2021/09/24 04:35:09;;;;;;;18.20;11.13;;;;;;;14.79;100.00;101171.25;4946545;28;20109;-67
2021/09/24 04:37:37;;;;;;;22.35;10.70;;;;;;;14.95;100.00;101170.25;4936525;28;20047;-67
2021/09/24 04:40:06;;;;;;;22.42;10.80;;;;;;;14.77;100.00;101173.28;4948640;28;20097;-66
2021/09/24 04:42:34;;;;;;;23.45;11.05;;;;;;;14.82;100.00;101174.59;4946252;28;20047;-66
2021/09/24 04:45:04;;;;;;;20.77;10.63;;;;;;;14.75;100.00;101175.31;4946226;28;20459;-66
2021/09/24 04:47:34;;;;;;;21.05;9.73;;;;;;;14.73;100.00;101174.66;4941679;28;20097;-66
2021/09/24 04:50:02;;;;;;;20.58;9.57;;;;;;;14.78;100.00;101174.94;4948654;28;20100;-66
2021/09/24 04:52:29;;;;;;;22.50;9.13;;;;;;;14.73;100.00;101180.03;4946219;28;20047;-66
2021/09/24 04:54:57;;;;;;;28.67;11.90;;;;;;;14.68;100.00;101176.22;4949013;28;20047;-66
2021/09/24 04:57:25;;;;;;;20.70;10.80;;;;;;;14.73;100.00;101177.34;4944786;28;20043;-65
2021/09/24 04:59:53;;;;;;;21.77;9.90;;;;;;;14.72;100.00;101181.06;4942295;28;20059;-66
2021/09/24 05:02:21;;;;;;;21.45;10.93;;;;;;;14.79;100.00;101191.91;4942713;28;20101;-66
2021/09/24 05:04:50;;;;;;;19.38;10.07;;;;;;;14.77;100.00;101178.66;4944635;28;20510;-66
2021/09/24 05:07:18;;;;;;;26.38;11.35;;;;;;;14.85;100.00;101175.06;4943903;28;20058;-66
2021/09/24 05:09:47;;;;;;;25.15;9.75;;;;;;;14.87;100.00;101166.81;4943592;28;20047;-65
2021/09/24 05:12:15;;;;;;;20.90;9.85;;;;;;;14.87;100.00;101164.97;4950061;28;20505;-65
2021/09/24 05:14:43;;;;;;;26.13;11.07;;;;;;;14.83;100.00;101168.19;4938103;28;20071;-66
2021/09/24 05:17:12;;;;;;;23.48;11.43;;;;;;;14.85;100.00;101174.22;4942885;28;20052;-66
2021/09/24 05:19:40;;;;;;;23.92;11.60;;;;;;;14.85;100.00;101182.28;4947269;28;20180;-65
2021/09/24 05:22:09;;;;;;;24.23;12.18;;;;;;;14.92;100.00;101177.84;4946106;28;20069;-66
2021/09/24 05:24:37;;;;;;;28.13;12.80;;;;;;;14.87;100.00;101174.88;4942673;28;20370;-66
2021/09/24 05:27:05;;;;;;;21.48;10.65;;;;;;;14.98;100.00;101160.97;4947529;28;21702;-66
2021/09/24 05:29:33;;;;;;;22.70;10.45;;;;;;;14.99;100.00;101154.59;4943756;28;20101;-65
2021/09/24 05:32:01;;;;;;;26.83;10.73;;;;;;;14.99;100.00;101149.22;4944589;28;20043;-66
2021/09/24 05:34:29;;;;;;;23.58;11.13;;;;;;;15.10;100.00;101150.63;4945037;28;20048;-66
2021/09/24 05:36:57;;;;;;;22.10;10.60;;;;;;;15.17;100.00;101143.47;4943516;28;20172;-66
2021/09/24 05:39:26;;;;;;;23.98;9.52;;;;;;;15.11;100.00;101145.06;4946526;28;20047;-66
2021/09/24 05:41:55;;;;;;;23.50;10.88;;;;;;;15.15;100.00;101143.66;4945608;28;20101;-66
2021/09/24 05:44:23;;;;;;;21.85;9.25;;;;;;;15.23;100.00;101141.91;4948598;28;20120;-66
2021/09/24 05:46:51;;;;;;;20.77;10.65;;;;;;;15.18;100.00;101141.59;4943685;28;20051;-66
2021/09/24 05:49:19;;;;;;;24.20;10.52;;;;;;;15.19;100.00;101143.28;4944932;28;20105;-66
2021/09/24 05:51:47;;;;;;;19.90;9.48;;;;;;;15.21;100.00;101143.91;4945394;28;20070;-66
2021/09/24 05:54:15;;;;;;;21.75;10.20;;;;;;;15.26;100.00;101141.53;4943211;28;20054;-66
2021/09/24 05:56:44;;;;;;;22.50;10.13;;;;;;;15.36;100.00;101143.94;4941792;28;20048;-65
2021/09/24 05:59:12;;;;;;;23.02;10.30;;;;;;;15.22;100.00;101142.91;4941079;28;20040;-66
2021/09/24 06:01:40;;;;;;;22.05;11.38;;;;;;;15.26;100.00;101142.34;4940916;28;20448;-66
2021/09/24 06:04:08;;;;;;;20.10;9.40;;;;;;;15.37;100.00;101142.91;4941887;28;20382;-65
2021/09/24 06:06:36;;;;;;;21.52;10.95;;;;;;;15.33;100.00;101142.44;4941232;28;20052;-66
2021/09/24 06:09:04;;;;;;;24.48;10.93;;;;;;;15.36;100.00;101152.81;4943985;28;20044;-65
2021/09/24 06:11:32;;;;;;;23.88;11.32;;;;;;;15.38;100.00;101150.81;4942784;28;20051;-66
2021/09/24 06:14:02;;;;;;;22.50;10.63;;;;;;;15.49;100.00;101149.47;4945642;28;20059;-65
2021/09/24 06:16:31;;;;;;;19.75;10.15;;;;;;;15.49;100.00;101142.25;4946175;28;20062;-66
2021/09/24 06:18:59;;;;;;;26.75;10.60;;;;;;;15.53;100.00;101149.94;4948337;28;20039;-66
2021/09/24 06:21:28;;;;;;;21.40;11.02;;;;;;;15.43;100.00;101150.22;4943423;28;20100;-66
2021/09/24 06:23:57;;;;;;;22.75;10.35;;;;;;;15.50;100.00;101149.28;4944394;28;20044;-65
2021/09/24 06:26:25;;;;;;;22.17;11.05;;;;;;;15.62;100.00;101149.66;4943562;28;20390;-66
2021/09/24 06:28:54;;;;;;;30.85;11.57;;;;;;;15.54;100.00;101162.38;4944320;28;20039;-65
2021/09/24 06:31:23;;;;;;;28.90;13.13;;;;;;;15.47;100.00;101154.22;4945392;28;20066;-66
2021/09/24 06:33:51;;;;;;;27.80;13.10;;;;;;;15.71;100.00;101150.38;4947104;28;20345;-65
2021/09/24 06:36:19;;;;;;;31.52;14.15;;;;;;;15.63;100.00;101150.47;4948155;28;20052;-66
2021/09/24 06:38:47;;;;;;;31.92;13.55;;;;;;;15.58;100.00;101155.56;4948933;28;20047;-66
2021/09/24 06:41:15;;;;;;;30.67;13.68;;;;;;;15.74;100.00;101147.28;4945576;28;20047;-66
2021/09/24 06:43:44;;;;;;;37.50;14.27;;;;;;;15.80;100.00;101146.56;4945865;28;20059;-66
2021/09/24 06:46:32;;;;;;;31.42;14.60;;;;;;;16.04;100.00;101147.25;4948764;28;20424;-65
2021/09/24 06:49:00;;;;;;;35.03;14.55;;;;;;;16.08;100.00;101143.13;4947527;28;20071;-66
2021/09/24 06:51:28;;;;;;;31.00;13.05;;;;;;;16.22;100.00;101137.88;4946337;28;20336;-66
2021/09/24 06:53:56;;;;;;;29.42;13.55;;;;;;;16.27;100.00;101140.84;4949144;28;20078;-66
2021/09/24 06:56:24;;;;;;;31.00;12.85;;;;;;;16.51;100.00;101136.91;4950197;28;20051;-66
2021/09/24 06:58:52;;;;;;;28.45;13.30;;;;;;;16.37;100.00;101137.81;4945412;28;20121;-66
2021/09/24 07:01:20;;;;;;;31.27;15.02;;;;;;;16.20;100.00;101137.25;4949391;28;20057;-68
2021/09/24 07:03:49;;;;;;;27.98;13.27;;;;;;;16.32;100.00;101133.00;4948634;28;20051;-66
2021/09/24 07:06:17;;;;;;;32.17;13.65;;;;;;;16.28;100.00;101132.56;4949372;28;20097;-65
2021/09/24 07:08:45;;;;;;;32.83;14.23;;;;;;;16.47;100.00;101131.06;4942866;28;20047;-65
2021/09/24 07:11:13;;;;;;;27.48;12.23;;;;;;;16.49;100.00;101131.69;4946524;28;20133;-66
2021/09/24 07:13:41;;;;;;;28.20;12.82;;;;;;;16.40;100.00;101135.59;4945858;28;20214;-66
2021/09/24 07:16:09;;;;;;;27.88;12.05;;;;;;;16.20;100.00;101134.56;4949081;28;20046;-66
2021/09/24 07:18:37;;;;;;;24.90;12.10;;;;;;;16.34;100.00;101136.34;4945042;28;20044;-66
2021/09/24 07:21:07;;;;;;;25.80;13.05;;;;;;;16.60;100.00;101135.75;4953790;28;20073;-65
2021/09/24 07:23:35;;;;;;;27.88;13.32;;;;;;;16.39;100.00;101130.34;4946788;28;20040;-66
2021/09/24 07:26:03;;;;;;;29.00;11.88;;;;;;;16.66;100.00;101134.13;4948305;28;20039;-65
2021/09/24 07:28:31;;;;;;;22.75;11.25;;;;;;;16.68;100.00;101134.75;4947663;28;20051;-66
2021/09/24 07:30:59;;;;;;;26.35;13.05;;;;;;;16.95;100.00;101132.28;4945786;28;20048;-66
2021/09/24 07:33:27;;;;;;;26.88;11.52;;;;;;;16.85;100.00;101127.19;4945871;28;20059;-66
2021/09/24 07:35:55;;;;;;;24.33;12.75;;;;;;;16.68;100.00;101126.66;4947448;28;20464;-66
2021/09/24 07:38:24;;;;;;;23.98;10.50;;;;;;;16.74;100.00;101139.38;4944443;28;20043;-65
2021/09/24 07:40:52;;;;;;;22.15;10.60;;;;;;;17.33;100.00;101135.41;4947843;28;20051;-66
2021/09/24 07:43:20;;;;;;;26.00;10.73;;;;;;;17.07;100.00;101125.31;4946519;28;20097;-66
2021/09/24 07:45:48;;;;;;;27.42;11.70;;;;;;;17.09;100.00;101136.72;4949842;28;20047;-66
2021/09/24 07:48:16;;;;;;;21.85;11.32;;;;;;;17.28;100.00;101137.88;4947363;28;20039;-66
2021/09/24 07:50:44;;;;;;;25.25;11.15;;;;;;;17.37;100.00;101138.53;4947386;28;20138;-66
2021/09/24 07:53:12;;;;;;;21.92;11.52;;;;;;;17.46;100.00;101145.41;4946873;28;20036;-65
2021/09/24 07:55:41;;;;;;;20.15;11.25;;;;;;;17.27;100.00;101135.38;4947182;28;20047;-66
2021/09/24 07:58:09;;;;;;;20.40;10.75;;;;;;;17.17;100.00;101136.56;4946592;28;20428;-66
2021/09/24 08:00:37;;;;;;;21.55;10.82;;;;;;;17.48;100.00;101143.38;4948492;28;20054;-66
2021/09/24 08:03:05;;;;;;;22.98;11.90;;;;;;;17.80;100.00;101132.88;4949106;28;20043;-66
2021/09/24 08:05:34;;;;;;;18.00;10.88;;;;;;;17.41;100.00;101136.25;4945261;28;20135;-65
2021/09/24 08:08:02;;;;;;;19.80;11.48;;;;;;;17.37;100.00;101141.25;4944973;28;20047;-67
2021/09/24 08:10:30;;;;;;;25.52;11.32;;;;;;;17.77;100.00;101141.38;4949450;28;20048;-65
2021/09/24 08:12:59;;;;;;;20.67;10.60;;;;;;;17.58;100.00;101150.25;4953930;28;20283;-66
2021/09/24 08:15:27;;;;;;;20.85;9.85;;;;;;;17.98;100.00;101145.03;4947747;28;20104;-66
2021/09/24 08:17:55;;;;;;;21.65;10.10;;;;;;;17.64;100.00;101144.06;4946774;28;20055;-66
2021/09/24 08:20:23;;;;;;;21.25;12.13;;;;;;;17.59;100.00;101141.94;4945510;28;20043;-66
2021/09/24 08:22:51;;;;;;;22.27;11.85;;;;;;;17.43;100.00;101139.59;4949675;28;20162;-66
2021/09/24 08:25:19;;;;;;;18.52;10.13;;;;;;;18.07;100.00;101146.47;4945655;28;20050;-66
2021/09/24 08:27:48;;;;;;;14.57;8.70;;;;;;;18.22;100.00;101146.31;4946411;28;20047;-66
2021/09/24 08:30:22;;;;;;;16.77;9.07;;;;;;;18.03;100.00;101140.66;4949381;28;20051;-65
2021/09/24 08:32:50;;;;;;;17.45;8.68;;;;;;;18.12;100.00;101146.72;4946692;28;20051;-66
2021/09/24 08:35:18;;;;;;;18.48;9.90;;;;;;;18.41;100.00;101150.06;4944771;28;20169;-66
2021/09/24 08:37:47;;;;;;;18.58;9.20;;;;;;;17.85;100.00;101149.31;4943852;28;20042;-66
2021/09/24 08:40:16;;;;;;;18.95;9.70;;;;;;;18.03;100.00;101148.78;4952008;28;20050;-66
2021/09/24 08:42:45;;;;;;;15.10;9.85;;;;;;;18.40;100.00;101145.72;4947463;28;20043;-65
2021/09/24 08:45:15;;;;;;;15.10;8.63;;;;;;;17.75;100.00;101146.16;4941754;28;20051;-66
2021/09/24 08:47:44;;;;;;;13.85;9.05;;;;;;;17.44;100.00;101146.69;4941657;28;20047;-66
2021/09/24 08:50:12;;;;;;;15.93;8.32;;;;;;;18.33;100.00;101144.84;4944976;28;20496;-65
2021/09/24 08:52:40;;;;;;;15.70;8.32;;;;;;;18.47;100.00;101141.13;4943395;28;20379;-66
2021/09/24 08:55:11;;;;;;;11.40;7.95;;;;;;;18.42;100.00;101143.63;4948168;28;20063;-66
2021/09/24 08:57:42;;;;;;;12.93;7.90;;;;;;;17.47;100.00;101148.97;4944394;28;20062;-66
2021/09/24 09:00:11;;;;;;;14.20;7.53;;;;;;;19.31;100.00;101136.03;4951380;28;20055;-66
2021/09/24 09:02:57;;;;;;;13.43;7.20;;;;;;;20.02;100.00;101119.91;4947140;28;20390;-65
2021/09/24 09:05:27;;;;;;;12.10;6.15;;;;;;;20.04;100.00;101123.19;4946315;28;20047;-65
2021/09/24 09:08:17;;;;;;;13.60;6.90;;;;;;;20.99;100.00;101122.22;4945648;28;20048;-66
2021/09/24 09:10:52;;;;;;;13.80;6.70;;;;;;;19.26;100.00;101117.75;4948249;28;20110;-66
2021/09/24 09:13:20;;;;;;;14.38;7.28;;;;;;;19.85;100.00;101127.72;4948301;28;20482;-66
2021/09/24 09:15:54;;;;;;;11.85;5.97;;;;;;;20.28;100.00;101130.53;4943153;28;20112;-67
2021/09/24 09:18:23;;;;;;;10.02;6.40;;;;;;;19.68;100.00;101122.75;4943350;28;20047;-66
2021/09/24 09:20:53;;;;;;;8.40;5.78;;;;;;;19.47;100.00;101123.88;4953899;28;20056;-66
2021/09/24 09:23:23;;;;;;;8.45;5.32;;;;;;;19.30;100.00;101128.13;4945425;28;20073;-67
2021/09/24 09:25:53;;;;;;;8.40;5.75;;;;;;;19.78;100.00;101119.59;4950353;28;20047;-66
2021/09/24 09:28:32;;;;;;;9.52;5.22;;;;;;;19.86;100.00;101118.50;4947107;28;20112;-67
2021/09/24 09:31:00;;;;;;;12.30;6.18;;;;;;;19.79;100.00;101115.88;4944210;28;20039;-67
2021/09/24 09:33:37;;;;;;;8.32;4.97;;;;;;;19.45;100.00;101126.00;4952057;28;20039;-66
2021/09/24 09:36:06;;;;;;;8.10;4.90;;;;;;;19.22;100.00;101121.91;4948450;28;20113;-66
2021/09/24 09:38:35;;;;;;;8.63;4.63;;;;;;;18.96;100.00;101130.91;4943900;28;20619;-66
2021/09/24 09:41:05;;;;;;;7.55;4.82;;;;;;;19.77;100.00;101123.31;4956886;28;20050;-66
2021/09/24 09:43:36;;;;;;;12.02;5.63;;;;;;;20.68;100.00;101112.28;4943854;28;20077;-66
2021/09/24 09:46:05;;;;;;;12.45;5.22;;;;;;;20.67;100.00;101110.59;4953405;28;20350;-67
2021/09/24 09:48:35;;;;;;;9.00;5.65;;;;;;;19.07;100.00;101122.16;4948729;28;20104;-66
2021/09/24 09:51:03;;;;;;;8.27;4.28;;;;;;;19.62;100.00;101115.50;4952419;28;20382;-66
2021/09/24 09:53:32;;;;;;;8.38;4.53;;;;;;;22.42;100.00;101104.66;4950664;28;20336;-67
2021/09/24 09:56:02;;;;;;;6.93;3.65;;;;;;;21.33;100.00;101092.78;4951404;28;20054;-66
2021/09/24 09:58:33;;;;;;;10.18;3.72;;;;;;;20.40;100.00;101103.53;4951061;28;20050;-66
2021/09/24 10:01:05;;;;;;;5.40;3.60;;;;;;;22.56;100.00;101100.63;4950286;28;20126;-66
2021/09/24 10:03:38;;;;;;;5.40;3.33;;;;;;;21.02;100.00;101101.94;4949736;28;20060;-67
2021/09/24 10:06:20;;;;;;;5.60;3.40;;;;;;;19.69;100.00;101112.75;4951229;28;20055;-66
2021/09/24 10:08:51;;;;;;;4.28;3.20;;;;;;;19.75;100.00;101114.59;4943860;28;20047;-66
2021/09/24 10:11:20;;;;;;;5.82;3.58;;;;;;;19.43;100.00;101112.69;4947700;28;20051;-66
2021/09/24 10:13:54;;;;;;;6.32;3.45;;;;;;;20.10;100.00;101122.31;4949024;28;20051;-66
2021/09/24 10:16:24;;;;;;;6.53;3.30;;;;;;;20.25;100.00;101111.16;4946218;28;20047;-66
2021/09/24 10:18:54;;;;;;;4.13;3.40;;;;;;;19.70;100.00;101107.09;4947908;28;20652;-66
2021/09/24 10:21:22;;;;;;;7.40;2.90;;;;;;;19.84;100.00;101102.47;4948503;28;20047;-66
2021/09/24 10:23:50;;;;;;;6.22;3.70;;;;;;;19.66;100.00;101089.66;4948156;28;20058;-66
2021/09/24 10:26:24;;;;;;;5.22;3.42;;;;;;;19.78;100.00;101095.19;4945712;28;20067;-67
2021/09/24 10:28:57;;;;;;;5.13;3.58;;;;;;;20.06;100.00;101102.13;4945436;28;20059;-66
2021/09/24 10:31:28;;;;;;;7.38;3.40;;;;;;;19.88;100.00;101098.28;4946526;28;20297;-65
2021/09/24 10:34:01;;;;;;;6.82;3.03;;;;;;;20.68;100.00;101096.84;4950003;28;20043;-66
2021/09/24 10:36:37;;;;;;;8.60;2.80;;;;;;;21.92;100.00;101093.06;4950604;28;20043;-66
2021/09/24 10:39:06;;;;;;;3.05;2.30;;;;;;;21.84;100.00;101087.94;4948145;28;20051;-66
2021/09/24 10:41:34;;;;;;;3.45;2.30;;;;;;;23.25;100.00;101085.53;4949790;28;20055;-66
2021/09/24 10:44:01;;;;;;;1.90;1.75;;;;;;;22.79;100.00;101083.44;4948542;28;20043;-66
2021/09/24 10:46:32;;;;;;;6.35;2.28;;;;;;;20.91;100.00;101085.34;4949962;28;20058;-66
2021/09/24 10:49:34;;;;;;;4.70;2.00;;;;;;;20.98;100.00;101086.09;4946601;28;20047;-66
2021/09/24 10:52:18;;;;;;;2.10;1.50;;;;;;;21.30;100.00;101091.34;4947854;28;20047;-66
2021/09/24 10:54:54;;;;;;;3.95;1.65;;;;;;;20.95;100.00;101091.13;4949642;28;20069;-67
2021/09/24 10:57:22;;;;;;;3.35;1.60;;;;;;;21.17;100.00;101083.38;4945181;28;20125;-67
2021/09/24 10:59:50;;;;;;;4.25;2.45;;;;;;;20.62;100.00;101090.38;4949386;28;20403;-66
2021/09/24 11:02:39;;;;;;;3.30;1.80;;;;;;;21.12;100.00;101077.78;4948614;28;20074;-67
2021/09/24 11:05:09;;;;;;;4.13;1.92;;;;;;;23.57;100.00;101085.91;4948323;28;20105;-66
2021/09/24 11:07:37;;;;;;;2.75;1.90;;;;;;;23.54;100.00;101061.84;4943333;28;20044;-67
2021/09/24 11:10:07;;;;;;;3.22;2.38;;;;;;;22.65;100.00;101072.00;4949166;28;20059;-66
2021/09/24 11:12:35;;;;;;;4.03;1.90;;;;;;;21.30;100.00;101071.50;4945466;28;20058;-67
2021/09/24 11:15:11;;;;;;;5.55;2.10;;;;;;;22.28;100.00;101071.38;4944127;28;20039;-67